Time;durP1;ratioP1;P1;durP2;ratioP2;P2;SDS_P1;SDS_P2;PMS_P1;PMS_P2;Temp;Humidity;BMP_temperature;BMP_pressure;BME280_temperature;BME280_humidity;BME280_pressure;Samples;Min_cycle;Max_cycle;Signal;HPM_P1;HPM_P2
2021/10/25 00:00:02;;;;;;;6.85;4.28;;;8.80;99.90;;;;;;2080220;28;20026;-70
2021/10/25 00:01:04;;;;;;;5.93;4.10;;;8.80;99.90;;;;;;2079405;28;20081;-70
2021/10/25 00:02:06;;;;;;;7.65;4.53;;;8.70;99.90;;;;;;2072151;28;20025;-70
2021/10/25 00:03:07;;;;;;;5.22;3.60;;;8.70;99.90;;;;;;2072129;28;20111;-70
2021/10/25 00:04:07;;;;;;;7.10;3.80;;;8.70;99.90;;;;;;2071849;28;20057;-69
2021/10/25 00:05:08;;;;;;;5.78;3.78;;;8.70;99.90;;;;;;2077776;28;20108;-70
2021/10/25 00:06:09;;;;;;;4.70;3.70;;;8.70;99.90;;;;;;2078993;28;20026;-70
2021/10/25 00:07:10;;;;;;;5.93;4.55;;;8.70;99.90;;;;;;2080375;28;20014;-70
2021/10/25 00:08:13;;;;;;;5.53;3.70;;;8.70;99.90;;;;;;2082620;28;20354;-70
2021/10/25 00:09:13;;;;;;;4.93;4.07;;;8.70;99.90;;;;;;2085046;28;20366;-70
2021/10/25 00:10:14;;;;;;;5.07;4.32;;;8.70;99.90;;;;;;2071526;28;20141;-69
2021/10/25 00:11:15;;;;;;;5.22;4.10;;;8.70;99.90;;;;;;2076589;28;20108;-69
2021/10/25 00:12:15;;;;;;;5.15;3.58;;;8.70;99.90;;;;;;2079958;28;20029;-70
2021/10/25 00:13:16;;;;;;;5.05;4.20;;;8.70;99.90;;;;;;2080106;28;20424;-70
2021/10/25 00:14:17;;;;;;;8.73;4.47;;;8.70;99.90;;;;;;2075380;28;20109;-70
2021/10/25 00:15:17;;;;;;;4.68;4.13;;;8.70;99.90;;;;;;2071754;28;20049;-70
2021/10/25 00:16:18;;;;;;;5.90;4.50;;;8.70;99.90;;;;;;2078894;28;20025;-70
2021/10/25 00:17:18;;;;;;;4.82;4.25;;;8.70;99.90;;;;;;2080113;28;20045;-70
2021/10/25 00:18:19;;;;;;;8.63;4.18;;;8.70;99.90;;;;;;2079281;28;20025;-70
2021/10/25 00:19:20;;;;;;;8.18;4.00;;;8.60;99.90;;;;;;2078659;28;20025;-69
2021/10/25 00:20:20;;;;;;;4.20;3.83;;;8.60;99.90;;;;;;2071564;28;20026;-69
2021/10/25 00:21:21;;;;;;;5.68;3.97;;;8.60;99.90;;;;;;2071929;28;20077;-69
2021/10/25 00:22:21;;;;;;;7.13;4.60;;;8.60;99.90;;;;;;2074593;28;20037;-70
2021/10/25 00:23:22;;;;;;;7.72;4.05;;;8.60;99.90;;;;;;2079662;28;20026;-71
2021/10/25 00:24:22;;;;;;;5.40;3.65;;;8.60;99.90;;;;;;2073495;28;20029;-70
2021/10/25 00:25:23;;;;;;;4.57;4.00;;;8.60;99.90;;;;;;2071638;28;20037;-70
2021/10/25 00:26:24;;;;;;;6.70;4.25;;;8.60;99.90;;;;;;2077642;28;20053;-70
2021/10/25 00:27:25;;;;;;;5.82;4.25;;;8.60;99.90;;;;;;2079692;28;20463;-72
2021/10/25 00:28:25;;;;;;;6.38;4.07;;;8.60;99.90;;;;;;2079041;28;20473;-69
2021/10/25 00:29:26;;;;;;;5.15;4.25;;;8.60;99.90;;;;;;2079871;28;20421;-69
2021/10/25 00:30:27;;;;;;;5.93;4.43;;;8.60;99.90;;;;;;2076527;28;20100;-72
2021/10/25 00:31:27;;;;;;;8.13;4.32;;;8.50;99.90;;;;;;2074665;28;20021;-72
2021/10/25 00:32:28;;;;;;;6.47;4.15;;;8.50;99.90;;;;;;2073189;28;20087;-69
2021/10/25 00:33:28;;;;;;;7.28;4.10;;;8.50;99.90;;;;;;2071390;28;20494;-71
2021/10/25 00:34:29;;;;;;;8.25;4.32;;;8.50;99.90;;;;;;2072073;28;20030;-69
2021/10/25 00:35:29;;;;;;;6.88;4.20;;;8.50;99.90;;;;;;2076405;28;20033;-69
2021/10/25 00:36:31;;;;;;;6.97;4.30;;;8.50;99.90;;;;;;2075011;28;20072;-69
2021/10/25 00:37:31;;;;;;;6.55;4.03;;;8.50;99.90;;;;;;2079086;28;20022;-69
2021/10/25 00:38:32;;;;;;;5.07;4.32;;;8.50;99.90;;;;;;2076382;28;20022;-71
2021/10/25 00:39:33;;;;;;;4.20;3.78;;;8.40;99.90;;;;;;2079286;28;20025;-69
2021/10/25 00:40:33;;;;;;;6.70;4.50;;;8.50;99.90;;;;;;2073920;28;20530;-69
2021/10/25 00:41:34;;;;;;;8.57;4.20;;;8.40;99.90;;;;;;2071647;28;20112;-69
2021/10/25 00:42:35;;;;;;;4.60;4.10;;;8.40;99.90;;;;;;2077861;28;20171;-72
2021/10/25 00:43:36;;;;;;;4.68;4.25;;;8.40;99.90;;;;;;2079466;28;20477;-72
2021/10/25 00:44:36;;;;;;;9.43;4.40;;;8.40;99.90;;;;;;2079808;28;20057;-69
2021/10/25 00:45:37;;;;;;;8.27;4.40;;;8.40;99.90;;;;;;2079624;28;20056;-69
2021/10/25 00:46:38;;;;;;;6.63;4.63;;;8.40;99.90;;;;;;2076704;28;20040;-71
2021/10/25 00:47:39;;;;;;;4.65;4.22;;;8.50;99.90;;;;;;2071670;28;20022;-71
2021/10/25 00:48:40;;;;;;;5.43;3.90;;;8.40;99.90;;;;;;2071181;28;20097;-71
2021/10/25 00:49:40;;;;;;;7.53;4.30;;;8.50;99.90;;;;;;2071404;28;20045;-71
2021/10/25 00:50:41;;;;;;;5.57;4.00;;;8.50;99.90;;;;;;2071905;28;20096;-71
2021/10/25 00:51:41;;;;;;;10.15;4.68;;;8.50;99.90;;;;;;2074467;28;20022;-71
2021/10/25 00:52:43;;;;;;;6.93;4.22;;;8.50;99.90;;;;;;2071729;28;20030;-71
2021/10/25 00:53:44;;;;;;;4.55;4.13;;;8.50;99.90;;;;;;2071738;28;20018;-71
2021/10/25 00:54:45;;;;;;;7.00;4.22;;;8.50;99.90;;;;;;2071703;28;20101;-71
2021/10/25 00:55:46;;;;;;;5.43;4.38;;;8.50;99.90;;;;;;2071728;28;20018;-71
2021/10/25 00:56:47;;;;;;;12.98;4.50;;;8.50;99.90;;;;;;2076489;28;20100;-71
2021/10/25 00:57:48;;;;;;;8.57;4.50;;;8.50;99.90;;;;;;2080807;28;20429;-71
2021/10/25 00:58:48;;;;;;;7.90;4.15;;;8.50;99.90;;;;;;2078791;28;20033;-71
2021/10/25 00:59:49;;;;;;;5.38;4.18;;;8.50;99.90;;;;;;2080045;28;20113;-71
2021/10/25 01:00:49;;;;;;;6.32;4.30;;;8.50;99.90;;;;;;2087781;28;20031;-71
2021/10/25 01:01:50;;;;;;;6.05;4.10;;;8.50;99.90;;;;;;2078800;28;20084;-71
2021/10/25 01:02:51;;;;;;;5.20;4.32;;;8.50;99.90;;;;;;2077039;28;20288;-71
2021/10/25 01:03:51;;;;;;;6.55;4.30;;;8.50;99.90;;;;;;2071600;28;20050;-71
2021/10/25 01:04:52;;;;;;;5.63;4.28;;;8.50;99.90;;;;;;2072464;28;20033;-71
2021/10/25 01:05:53;;;;;;;7.00;4.13;;;8.50;99.90;;;;;;2075153;28;20104;-71
2021/10/25 01:06:55;;;;;;;6.93;4.25;;;8.40;99.90;;;;;;2071641;28;20516;-72
2021/10/25 01:07:56;;;;;;;6.30;4.80;;;8.40;99.90;;;;;;2075743;28;20124;-71
2021/10/25 01:08:57;;;;;;;8.82;4.35;;;8.40;99.90;;;;;;2078837;28;20533;-71
2021/10/25 01:09:58;;;;;;;5.35;4.53;;;8.40;99.90;;;;;;2078978;28;20037;-71
2021/10/25 01:10:59;;;;;;;5.78;4.13;;;8.40;99.90;;;;;;2078650;28;20059;-71
2021/10/25 01:12:00;;;;;;;6.68;4.10;;;8.40;99.90;;;;;;2079925;28;20517;-71
2021/10/25 01:13:01;;;;;;;7.05;4.47;;;8.40;99.90;;;;;;2073671;28;20080;-71
2021/10/25 01:14:02;;;;;;;6.45;4.40;;;8.40;99.90;;;;;;2076802;28;20031;-71
2021/10/25 01:15:04;;;;;;;6.28;4.90;;;8.40;99.90;;;;;;2071488;28;20029;-71
2021/10/25 01:16:06;;;;;;;8.88;4.85;;;8.40;99.90;;;;;;2075659;28;20104;-71
2021/10/25 01:17:06;;;;;;;5.20;3.75;;;8.40;99.90;;;;;;2079419;28;20026;-71
2021/10/25 01:18:07;;;;;;;5.97;4.60;;;8.40;99.90;;;;;;2079238;28;20108;-71
2021/10/25 01:19:07;;;;;;;7.15;4.07;;;8.40;99.90;;;;;;2076891;28;20025;-71
2021/10/25 01:20:08;;;;;;;4.60;3.65;;;8.40;99.90;;;;;;2071741;28;20091;-71
2021/10/25 01:21:09;;;;;;;5.50;4.30;;;8.40;99.90;;;;;;2070680;28;20033;-71
2021/10/25 01:22:10;;;;;;;4.75;4.03;;;8.40;99.90;;;;;;2070843;28;20152;-71
2021/10/25 01:23:10;;;;;;;5.43;4.10;;;8.40;99.90;;;;;;2071280;28;20454;-71
2021/10/25 01:24:11;;;;;;;5.43;4.18;;;8.40;99.90;;;;;;2071807;28;20437;-71
2021/10/25 01:25:11;;;;;;;5.82;3.83;;;8.40;99.90;;;;;;2073324;28;20113;-71
2021/10/25 01:26:14;;;;;;;7.80;4.40;;;8.40;99.90;;;;;;2071268;28;20756;-71
2021/10/25 01:27:14;;;;;;;5.63;4.30;;;8.40;99.90;;;;;;2071862;28;20014;-71
2021/10/25 01:28:24;;;;;;;5.63;3.83;;;8.40;99.90;;;;;;2070769;28;20097;-71
2021/10/25 01:29:25;;;;;;;9.15;4.63;;;8.40;99.90;;;;;;2075844;28;20022;-71
2021/10/25 01:30:26;;;;;;;7.10;4.47;;;8.40;99.90;;;;;;2076560;28;20489;-71
2021/10/25 01:31:27;;;;;;;4.97;3.83;;;8.40;99.90;;;;;;2077613;28;20052;-71
2021/10/25 01:32:27;;;;;;;6.40;4.55;;;8.40;99.90;;;;;;2074927;28;20037;-71
2021/10/25 01:33:29;;;;;;;5.20;3.90;;;8.40;99.90;;;;;;2079482;28;20433;-71
2021/10/25 01:34:30;;;;;;;4.80;4.03;;;8.40;99.90;;;;;;2077823;28;20077;-71
2021/10/25 01:35:30;;;;;;;5.35;4.18;;;8.40;99.90;;;;;;2074959;28;20022;-71
2021/10/25 01:36:31;;;;;;;6.05;4.05;;;8.40;99.90;;;;;;2079494;28;20018;-71
2021/10/25 01:37:31;;;;;;;8.18;4.10;;;8.40;99.90;;;;;;2072477;28;20026;-71
2021/10/25 01:38:32;;;;;;;5.35;4.05;;;8.40;99.90;;;;;;2076937;28;20033;-71
2021/10/25 01:39:33;;;;;;;6.40;4.22;;;8.40;99.90;;;;;;2073062;28;20485;-71
2021/10/25 01:40:33;;;;;;;6.47;4.32;;;8.40;99.90;;;;;;2074113;28;20049;-71
2021/10/25 01:41:34;;;;;;;4.82;3.88;;;8.40;99.90;;;;;;2079346;28;20762;-72
2021/10/25 01:42:36;;;;;;;10.45;4.55;;;8.40;99.90;;;;;;2079340;28;20025;-71
2021/10/25 01:43:37;;;;;;;6.60;4.32;;;8.50;99.90;;;;;;2071330;28;20022;-71
2021/10/25 01:44:39;;;;;;;5.45;3.90;;;8.50;99.90;;;;;;2079456;28;20021;-71
2021/10/25 01:45:39;;;;;;;6.03;4.00;;;8.50;99.90;;;;;;2072865;28;20030;-71
2021/10/25 01:46:43;;;;;;;8.63;4.28;;;8.50;99.90;;;;;;2071380;28;20106;-71
2021/10/25 01:47:44;;;;;;;5.35;3.85;;;8.50;99.90;;;;;;2075814;28;20044;-71
2021/10/25 01:48:44;;;;;;;8.45;4.60;;;8.50;99.90;;;;;;2074776;28;20046;-72
2021/10/25 01:49:45;;;;;;;7.05;4.38;;;8.50;99.90;;;;;;2078824;28;20038;-71
2021/10/25 01:50:46;;;;;;;7.20;4.50;;;8.50;99.90;;;;;;2071326;28;20064;-71
2021/10/25 01:51:46;;;;;;;4.43;4.00;;;8.50;99.90;;;;;;2071335;28;20749;-71
2021/10/25 01:52:47;;;;;;;5.80;3.65;;;8.50;99.90;;;;;;2071239;28;20022;-71
2021/10/25 01:53:47;;;;;;;6.43;4.22;;;8.50;99.90;;;;;;2077263;28;20412;-71
2021/10/25 01:54:48;;;;;;;9.88;4.70;;;8.50;99.90;;;;;;2079612;28;20009;-72
2021/10/25 01:55:56;;;;;;;5.32;4.15;;;8.50;99.90;;;;;;2079371;28;20032;-72
2021/10/25 01:56:56;;;;;;;9.02;4.07;;;8.50;99.90;;;;;;2079498;28;20028;-72
2021/10/25 01:57:57;;;;;;;9.40;4.80;;;8.50;99.90;;;;;;2078325;28;20025;-72
2021/10/25 01:58:58;;;;;;;8.55;4.57;;;8.50;99.90;;;;;;2073682;28;20374;-72
2021/10/25 01:59:59;;;;;;;7.35;4.88;;;8.60;99.90;;;;;;2079240;28;20024;-72
2021/10/25 02:00:59;;;;;;;5.07;4.40;;;8.60;99.90;;;;;;2079335;28;20026;-72
2021/10/25 02:02:00;;;;;;;6.95;4.40;;;8.60;99.90;;;;;;2072259;28;20030;-72
2021/10/25 02:03:01;;;;;;;6.63;4.30;;;8.60;99.90;;;;;;2075813;28;20033;-72
2021/10/25 02:04:03;;;;;;;7.75;4.28;;;8.60;99.90;;;;;;2080602;28;20052;-72
2021/10/25 02:05:03;;;;;;;5.70;3.95;;;8.60;99.90;;;;;;2080058;28;20594;-71
2021/10/25 02:06:04;;;;;;;6.35;4.30;;;8.60;99.90;;;;;;2078153;28;20104;-72
2021/10/25 02:07:04;;;;;;;8.88;4.45;;;8.70;99.90;;;;;;2076758;28;20104;-72
2021/10/25 02:08:06;;;;;;;7.72;4.20;;;8.70;99.90;;;;;;2079671;28;20072;-72
2021/10/25 02:09:07;;;;;;;5.68;4.50;;;8.70;99.90;;;;;;2080532;28;20025;-72
2021/10/25 02:10:08;;;;;;;8.07;4.35;;;8.70;99.90;;;;;;2072740;28;20079;-72
2021/10/25 02:11:08;;;;;;;7.78;4.32;;;8.70;99.90;;;;;;2072628;28;20088;-72
2021/10/25 02:12:09;;;;;;;5.38;3.97;;;8.70;99.90;;;;;;2072743;28;20033;-71
2021/10/25 02:13:15;;;;;;;7.35;4.03;;;8.70;99.90;;;;;;2072417;28;20018;-72
2021/10/25 02:14:16;;;;;;;5.28;4.00;;;8.70;99.90;;;;;;2080541;28;20442;-72
2021/10/25 02:15:16;;;;;;;5.70;3.78;;;8.70;99.90;;;;;;2080662;28;20056;-71
2021/10/25 02:16:17;;;;;;;4.75;3.55;;;8.70;99.90;;;;;;2075914;28;20100;-72
2021/10/25 02:17:18;;;;;;;7.20;4.30;;;8.80;99.90;;;;;;2072861;28;20037;-72
2021/10/25 02:18:18;;;;;;;5.32;3.80;;;8.80;99.90;;;;;;2072092;28;20312;-71
2021/10/25 02:19:19;;;;;;;8.18;4.32;;;8.80;99.90;;;;;;2075414;28;20032;-71
2021/10/25 02:20:19;;;;;;;7.35;4.55;;;8.80;99.90;;;;;;2080585;28;20550;-71
2021/10/25 02:21:20;;;;;;;8.68;3.97;;;8.80;99.90;;;;;;2073920;28;20105;-72
2021/10/25 02:22:21;;;;;;;6.70;4.80;;;8.80;99.90;;;;;;2080208;28;20030;-72
2021/10/25 02:23:21;;;;;;;8.07;4.03;;;8.80;99.90;;;;;;2080615;28;20075;-72
2021/10/25 02:24:22;;;;;;;7.07;4.25;;;8.80;99.90;;;;;;2080586;28;20109;-72
2021/10/25 02:25:23;;;;;;;4.57;4.05;;;8.80;99.90;;;;;;2080789;28;20056;-72
2021/10/25 02:26:23;;;;;;;6.13;4.35;;;8.80;99.90;;;;;;2079420;28;20033;-72
2021/10/25 02:27:24;;;;;;;5.53;4.00;;;8.80;99.90;;;;;;2077763;28;20026;-72
2021/10/25 02:28:25;;;;;;;6.47;4.75;;;8.90;99.90;;;;;;2072265;28;20026;-72
2021/10/25 02:29:25;;;;;;;6.20;4.32;;;8.90;99.90;;;;;;2072208;28;20088;-72
2021/10/25 02:30:27;;;;;;;6.22;4.32;;;8.90;99.90;;;;;;2072201;28;20062;-72
2021/10/25 02:31:27;;;;;;;7.82;4.25;;;8.90;99.90;;;;;;2072544;28;20022;-72
2021/10/25 02:32:28;;;;;;;7.45;4.20;;;8.90;99.90;;;;;;2072632;28;20747;-72
2021/10/25 02:33:28;;;;;;;7.63;4.40;;;8.90;99.90;;;;;;2072569;28;20029;-72
2021/10/25 02:34:31;;;;;;;6.68;4.50;;;8.90;99.90;;;;;;2077148;28;20116;-71
2021/10/25 02:35:31;;;;;;;5.50;3.72;;;8.90;99.90;;;;;;2075156;28;20753;-72
2021/10/25 02:36:32;;;;;;;6.70;4.18;;;8.90;99.90;;;;;;2079599;28;20440;-72
2021/10/25 02:37:32;;;;;;;6.72;4.25;;;8.90;99.90;;;;;;2074345;28;20022;-72
2021/10/25 02:38:35;;;;;;;5.55;3.78;;;9.00;99.90;;;;;;2079976;28;20354;-72
2021/10/25 02:39:36;;;;;;;4.78;4.28;;;8.90;99.90;;;;;;2073882;28;20037;-72
2021/10/25 02:40:36;;;;;;;5.65;4.00;;;9.00;99.90;;;;;;2074176;28;20061;-72
2021/10/25 02:41:37;;;;;;;6.90;3.95;;;8.90;99.90;;;;;;2073880;28;20026;-72
2021/10/25 02:42:38;;;;;;;7.75;4.18;;;9.00;99.90;;;;;;2074211;28;20478;-71
2021/10/25 02:43:39;;;;;;;6.85;4.18;;;9.00;99.90;;;;;;2074000;28;20518;-72
2021/10/25 02:44:40;;;;;;;6.85;4.20;;;9.00;99.90;;;;;;2073840;28;20026;-72
2021/10/25 02:45:41;;;;;;;7.28;4.65;;;9.00;99.90;;;;;;2073920;28;20494;-72
2021/10/25 02:46:41;;;;;;;6.15;4.43;;;9.00;99.90;;;;;;2074002;28;20033;-72
2021/10/25 02:47:42;;;;;;;6.00;3.92;;;9.00;99.90;;;;;;2074081;28;20022;-72
2021/10/25 02:48:44;;;;;;;6.10;4.68;;;9.00;99.90;;;;;;2073501;28;20084;-72
2021/10/25 02:49:45;;;;;;;4.78;4.32;;;9.10;99.90;;;;;;2078847;28;20028;-72
2021/10/25 02:50:46;;;;;;;5.03;4.07;;;9.10;99.90;;;;;;2073985;28;20458;-72
2021/10/25 02:51:47;;;;;;;7.15;4.45;;;9.10;99.90;;;;;;2073897;28;20026;-72
2021/10/25 02:52:47;;;;;;;6.65;4.78;;;9.10;99.90;;;;;;2074062;28;20097;-72
2021/10/25 02:53:48;;;;;;;8.52;4.20;;;9.10;99.90;;;;;;2074042;28;20029;-72
2021/10/25 02:54:48;;;;;;;7.05;4.53;;;9.10;99.90;;;;;;2073856;28;20509;-72
2021/10/25 02:55:50;;;;;;;6.93;4.47;;;9.10;99.90;;;;;;2073858;28;20026;-72
2021/10/25 02:56:53;;;;;;;7.50;4.30;;;9.10;99.90;;;;;;2072823;28;20064;-73
2021/10/25 02:57:54;;;;;;;7.10;3.80;;;9.10;99.90;;;;;;2076565;28;20018;-72
2021/10/25 02:58:55;;;;;;;7.63;4.18;;;9.10;99.90;;;;;;2079720;28;20056;-72
2021/10/25 02:59:56;;;;;;;8.55;4.63;;;9.10;99.90;;;;;;2079124;28;20157;-72
2021/10/25 03:00:58;;;;;;;9.20;4.15;;;9.10;99.90;;;;;;2081741;28;20080;-72
2021/10/25 03:01:58;;;;;;;6.20;3.75;;;9.10;99.90;;;;;;2073313;28;20116;-72
2021/10/25 03:02:59;;;;;;;8.43;4.18;;;9.10;99.90;;;;;;2077388;28;20038;-72
2021/10/25 03:03:59;;;;;;;5.78;4.60;;;9.10;99.90;;;;;;2080562;28;20374;-72
2021/10/25 03:05:01;;;;;;;8.43;4.47;;;9.10;99.90;;;;;;2080102;28;20028;-72
2021/10/25 03:06:01;;;;;;;6.70;4.43;;;9.10;99.90;;;;;;2078459;28;20505;-72
2021/10/25 03:07:02;;;;;;;9.80;4.65;;;9.10;99.90;;;;;;2072811;28;20368;-72
2021/10/25 03:08:03;;;;;;;6.53;4.63;;;9.10;99.90;;;;;;2072724;28;20026;-72
2021/10/25 03:09:05;;;;;;;7.03;4.72;;;9.10;99.90;;;;;;2072163;28;20192;-72
2021/10/25 03:10:07;;;;;;;9.48;4.18;;;9.10;99.90;;;;;;2073015;28;20485;-72
2021/10/25 03:11:08;;;;;;;7.40;5.03;;;9.10;99.90;;;;;;2071954;28;20565;-72
2021/10/25 03:12:09;;;;;;;5.00;4.30;;;9.10;99.90;;;;;;2072611;28;20041;-73
2021/10/25 03:13:10;;;;;;;5.95;4.15;;;9.10;99.90;;;;;;2072985;28;20431;-72
2021/10/25 03:14:11;;;;;;;7.65;4.68;;;9.10;99.90;;;;;;2077605;28;20040;-72
2021/10/25 03:15:11;;;;;;;5.53;4.68;;;9.10;99.90;;;;;;2072211;28;20542;-72
2021/10/25 03:16:12;;;;;;;7.25;4.63;;;9.10;99.90;;;;;;2072495;28;20096;-71
2021/10/25 03:17:12;;;;;;;5.95;4.65;;;9.10;99.90;;;;;;2077281;28;20537;-72
2021/10/25 03:18:14;;;;;;;7.13;4.47;;;9.20;99.90;;;;;;2079878;28;20029;-72
2021/10/25 03:19:14;;;;;;;7.05;4.43;;;9.20;99.90;;;;;;2079605;28;20036;-72
2021/10/25 03:20:15;;;;;;;7.15;4.47;;;9.20;99.90;;;;;;2080144;28;20064;-72
2021/10/25 03:21:17;;;;;;;8.20;4.72;;;9.20;99.90;;;;;;2073393;28;20502;-72
2021/10/25 03:22:18;;;;;;;6.65;4.38;;;9.20;99.90;;;;;;2072455;28;20025;-72
2021/10/25 03:23:18;;;;;;;7.95;4.60;;;9.20;99.90;;;;;;2072160;28;20033;-72
2021/10/25 03:24:19;;;;;;;5.55;4.95;;;9.20;99.90;;;;;;2072407;28;20109;-72
2021/10/25 03:25:20;;;;;;;9.35;4.55;;;9.20;99.90;;;;;;2071384;28;20038;-72
2021/10/25 03:26:20;;;;;;;6.63;4.40;;;9.20;99.90;;;;;;2071761;28;20022;-72
2021/10/25 03:27:21;;;;;;;6.43;4.55;;;9.20;99.90;;;;;;2072569;28;20401;-72
2021/10/25 03:28:22;;;;;;;7.68;4.47;;;9.20;99.90;;;;;;2072061;28;20113;-72
2021/10/25 03:29:23;;;;;;;5.90;3.80;;;9.20;99.90;;;;;;2078322;28;20523;-72
2021/10/25 03:30:23;;;;;;;6.50;4.75;;;9.20;99.90;;;;;;2078667;28;20389;-72
2021/10/25 03:31:24;;;;;;;7.13;4.55;;;9.20;99.90;;;;;;2078059;28;20413;-72
2021/10/25 03:32:25;;;;;;;6.38;4.55;;;9.20;99.90;;;;;;2078097;28;20080;-71
2021/10/25 03:33:26;;;;;;;6.85;4.50;;;9.20;99.90;;;;;;2080645;28;20034;-72
2021/10/25 03:34:28;;;;;;;6.55;4.10;;;9.20;99.90;;;;;;2080363;28;20017;-72
2021/10/25 03:35:29;;;;;;;5.00;3.75;;;9.20;99.90;;;;;;2076538;28;20128;-72
2021/10/25 03:36:31;;;;;;;7.18;3.88;;;9.20;99.90;;;;;;2079090;28;20017;-72
2021/10/25 03:37:34;;;;;;;8.35;4.32;;;9.20;99.90;;;;;;2080340;28;20532;-72
2021/10/25 03:38:38;;;;;;;5.63;4.35;;;9.30;99.90;;;;;;2079145;28;20014;-72
2021/10/25 03:39:41;;;;;;;8.73;4.35;;;9.20;99.90;;;;;;2072515;28;20049;-72
2021/10/25 03:40:46;;;;;;;6.25;4.00;;;9.20;99.90;;;;;;2074325;28;20029;-72
2021/10/25 03:41:48;;;;;;;4.70;4.03;;;9.20;99.90;;;;;;2077541;28;20057;-72
2021/10/25 03:42:52;;;;;;;5.82;4.28;;;9.20;99.90;;;;;;2071847;28;20092;-72
2021/10/25 03:44:04;;;;;;;5.88;3.95;;;9.20;99.90;;;;;;2072345;28;20022;-72
2021/10/25 03:46:12;;;;;;;7.07;4.10;;;9.20;99.90;;;;;;2080252;28;20426;-71
2021/10/25 03:47:24;;;;;;;5.93;4.05;;;9.20;99.90;;;;;;2080039;28;20065;-72
2021/10/25 03:48:39;;;;;;;5.45;3.97;;;9.20;99.90;;;;;;2076098;28;20026;-72
2021/10/25 03:49:54;;;;;;;7.35;3.88;;;9.20;99.90;;;;;;2071275;28;20413;-72
2021/10/25 03:50:54;;;;;;;6.85;4.53;;;9.20;99.90;;;;;;2071453;28;20030;-72
2021/10/25 03:51:55;;;;;;;5.90;4.10;;;9.20;99.90;;;;;;2072288;28;20482;-72
2021/10/25 03:53:04;;;;;;;7.75;4.30;;;9.20;99.90;;;;;;2072216;28;20444;-72
2021/10/25 03:55:17;;;;;;;6.68;4.20;;;9.10;99.90;;;;;;2077245;28;20100;-72
2021/10/25 03:59:25;;;;;;;7.55;4.68;;;9.10;99.90;;;;;;2075801;28;20050;-72
2021/10/25 04:26:12;;;;;;;6.05;4.05;;;9.00;99.90;;;;;;2072011;28;20033;-72
2021/10/25 04:28:21;;;;;;;5.32;3.90;;;9.00;99.90;;;;;;2077945;28;20115;-72
2021/10/25 04:29:25;;;;;;;7.18;4.10;;;9.00;99.90;;;;;;2079623;28;20033;-72
2021/10/25 04:30:31;;;;;;;6.93;4.35;;;9.00;99.90;;;;;;2079918;28;20040;-71
2021/10/25 04:31:31;;;;;;;7.95;4.13;;;9.00;99.90;;;;;;2080191;28;20033;-72
2021/10/25 04:32:32;;;;;;;5.65;4.40;;;9.00;99.90;;;;;;2072570;28;20026;-72
2021/10/25 04:33:32;;;;;;;7.38;4.20;;;9.00;99.90;;;;;;2074878;28;20025;-72
2021/10/25 04:34:34;;;;;;;4.70;3.53;;;9.00;99.90;;;;;;2079874;28;20045;-72
2021/10/25 04:35:35;;;;;;;6.47;4.40;;;9.00;99.90;;;;;;2079196;28;20023;-72
2021/10/25 04:36:35;;;;;;;8.23;4.30;;;9.00;99.90;;;;;;2076694;28;20548;-72
2021/10/25 04:37:36;;;;;;;5.95;4.38;;;9.00;99.90;;;;;;2087789;28;20044;-72
2021/10/25 04:38:37;;;;;;;6.93;4.10;;;9.00;99.90;;;;;;2076236;28;20021;-72
2021/10/25 04:39:37;;;;;;;6.80;4.53;;;9.00;99.90;;;;;;2071818;28;20029;-72
2021/10/25 04:40:38;;;;;;;5.25;3.95;;;9.00;99.90;;;;;;2071132;28;20030;-72
2021/10/25 04:41:39;;;;;;;5.07;3.90;;;9.00;99.90;;;;;;2071498;28;20025;-72
2021/10/25 04:42:40;;;;;;;5.28;3.75;;;9.00;99.90;;;;;;2071246;28;20335;-71
2021/10/25 04:43:41;;;;;;;5.53;3.67;;;9.10;99.90;;;;;;2078495;28;20033;-72
2021/10/25 04:44:41;;;;;;;5.32;3.38;;;9.00;99.90;;;;;;2079927;28;20036;-72
2021/10/25 04:45:43;;;;;;;9.23;4.03;;;9.10;99.90;;;;;;2072413;28;20546;-72
2021/10/25 04:46:43;;;;;;;5.70;3.78;;;9.10;99.90;;;;;;2071418;28;20422;-72
2021/10/25 04:47:44;;;;;;;6.00;3.80;;;9.10;99.90;;;;;;2071954;28;20120;-72
2021/10/25 04:48:45;;;;;;;4.97;3.72;;;9.10;99.90;;;;;;2077226;28;20053;-72
2021/10/25 04:49:45;;;;;;;5.80;3.88;;;9.10;99.90;;;;;;2079974;28;20504;-72
2021/10/25 04:50:46;;;;;;;5.97;4.43;;;9.00;99.90;;;;;;2079698;28;20533;-72
2021/10/25 04:51:47;;;;;;;7.25;4.25;;;9.10;99.90;;;;;;2075874;28;20120;-72
2021/10/25 04:52:47;;;;;;;6.47;4.28;;;9.10;99.90;;;;;;2071614;28;20026;-72
2021/10/25 04:53:48;;;;;;;8.23;3.83;;;9.10;99.90;;;;;;2079516;28;20023;-72
2021/10/25 04:54:49;;;;;;;6.18;3.88;;;9.10;99.90;;;;;;2079863;28;20056;-72
2021/10/25 04:55:49;;;;;;;6.00;4.10;;;9.10;99.90;;;;;;2078895;28;20075;-72
2021/10/25 04:56:50;;;;;;;7.63;4.45;;;9.10;99.90;;;;;;2077124;28;20529;-72
2021/10/25 04:57:50;;;;;;;5.55;4.00;;;9.10;99.90;;;;;;2077425;28;20036;-72
2021/10/25 04:58:51;;;;;;;6.53;3.90;;;9.10;99.90;;;;;;2071360;28;20022;-72
2021/10/25 04:59:51;;;;;;;6.55;4.05;;;9.10;99.90;;;;;;2080022;28;20047;-72
2021/10/25 05:00:52;;;;;;;4.57;3.97;;;9.10;99.90;;;;;;2079592;28;20061;-72
2021/10/25 05:01:53;;;;;;;8.27;4.30;;;9.00;99.90;;;;;;2070978;28;20109;-72
2021/10/25 05:02:55;;;;;;;5.97;4.30;;;9.00;99.90;;;;;;2072747;28;20030;-72
2021/10/25 05:03:55;;;;;;;7.18;3.95;;;9.00;99.90;;;;;;2079713;28;20025;-72
2021/10/25 05:04:56;;;;;;;7.55;4.60;;;9.00;99.90;;;;;;2079579;28;20474;-72
2021/10/25 05:05:57;;;;;;;7.32;4.40;;;9.00;99.90;;;;;;2078159;28;20025;-71
2021/10/25 05:06:58;;;;;;;7.50;4.22;;;9.00;99.90;;;;;;2079694;28;20025;-72
2021/10/25 05:07:59;;;;;;;6.95;4.20;;;9.00;99.90;;;;;;2079954;28;20072;-72
2021/10/25 05:08:59;;;;;;;4.72;3.83;;;9.00;99.90;;;;;;2079124;28;20112;-71
2021/10/25 05:10:02;;;;;;;7.82;4.30;;;9.00;99.90;;;;;;2072461;28;20030;-72
2021/10/25 05:11:03;;;;;;;6.43;4.40;;;9.00;99.90;;;;;;2079828;28;20072;-72
2021/10/25 05:12:04;;;;;;;7.35;4.72;;;9.00;99.90;;;;;;2079275;28;20057;-72
2021/10/25 05:13:05;;;;;;;5.70;4.32;;;9.00;99.90;;;;;;2079744;28;20129;-72
2021/10/25 05:14:05;;;;;;;7.38;4.30;;;9.00;99.90;;;;;;2077640;28;20041;-72
2021/10/25 05:15:06;;;;;;;4.80;4.10;;;9.00;99.90;;;;;;2071697;28;20022;-72
2021/10/25 05:16:07;;;;;;;9.38;4.38;;;9.00;99.90;;;;;;2071411;28;20049;-72
2021/10/25 05:17:08;;;;;;;5.93;4.43;;;9.00;99.90;;;;;;2070872;28;20498;-71
2021/10/25 05:18:09;;;;;;;7.68;4.72;;;9.00;99.90;;;;;;2070583;28;20018;-71
2021/10/25 05:19:10;;;;;;;5.88;3.88;;;9.00;99.90;;;;;;2075544;28;20034;-71
2021/10/25 05:20:11;;;;;;;6.32;4.90;;;8.90;99.90;;;;;;2079681;28;20025;-72
2021/10/25 05:21:11;;;;;;;5.22;4.57;;;8.90;99.90;;;;;;2079964;28;20052;-72
2021/10/25 05:22:12;;;;;;;7.38;4.72;;;8.90;99.90;;;;;;2079720;28;20025;-72
2021/10/25 05:23:12;;;;;;;5.82;4.70;;;8.90;99.90;;;;;;2079599;28;20040;-72
2021/10/25 05:24:13;;;;;;;7.88;4.88;;;8.90;99.90;;;;;;2077945;28;20057;-72
2021/10/25 05:25:14;;;;;;;7.63;5.07;;;8.90;99.90;;;;;;2075054;28;20041;-72
2021/10/25 05:26:14;;;;;;;8.38;5.30;;;8.90;99.90;;;;;;2073511;28;20451;-72
2021/10/25 05:27:16;;;;;;;6.57;4.53;;;8.90;99.90;;;;;;2078629;28;20033;-72
2021/10/25 05:28:17;;;;;;;5.47;4.32;;;8.90;99.90;;;;;;2080824;28;20108;-72
2021/10/25 05:29:18;;;;;;;6.45;4.63;;;8.90;99.90;;;;;;2079747;28;20026;-72
2021/10/25 05:30:18;;;;;;;7.70;4.80;;;8.90;99.90;;;;;;2077276;28;20040;-72
2021/10/25 05:31:19;;;;;;;5.20;4.25;;;8.90;99.90;;;;;;2082582;28;20018;-72
2021/10/25 05:32:20;;;;;;;7.95;4.53;;;8.90;99.90;;;;;;2079611;28;20074;-72
2021/10/25 05:33:20;;;;;;;6.75;4.72;;;8.90;99.90;;;;;;2080626;28;20028;-72
2021/10/25 05:34:21;;;;;;;7.97;4.25;;;8.80;99.90;;;;;;2077228;28;20782;-72
2021/10/25 05:35:22;;;;;;;5.57;3.78;;;8.80;99.90;;;;;;2079630;28;20026;-72
2021/10/25 05:36:22;;;;;;;5.57;4.40;;;8.80;99.90;;;;;;2077792;28;20105;-72
2021/10/25 05:37:24;;;;;;;6.88;5.00;;;8.80;99.90;;;;;;2079923;28;20500;-72
2021/10/25 05:38:25;;;;;;;5.55;3.85;;;8.80;99.90;;;;;;2082459;28;20105;-72
2021/10/25 05:39:26;;;;;;;8.07;4.85;;;8.80;99.90;;;;;;2081318;28;20101;-72
2021/10/25 05:40:27;;;;;;;6.22;4.57;;;8.80;99.90;;;;;;2079130;28;20067;-72
2021/10/25 05:41:29;;;;;;;7.05;4.63;;;8.70;99.90;;;;;;2078365;28;20018;-72
2021/10/25 05:42:30;;;;;;;7.10;4.72;;;8.80;99.90;;;;;;2082038;28;20013;-72
2021/10/25 05:43:31;;;;;;;8.63;4.40;;;8.80;99.90;;;;;;2076727;28;20022;-72
2021/10/25 05:44:33;;;;;;;3.90;3.50;;;8.70;99.90;;;;;;2079397;28;20022;-72
2021/10/25 05:45:34;;;;;;;5.50;4.47;;;8.70;99.90;;;;;;2076715;28;20022;-72
2021/10/25 05:46:35;;;;;;;7.65;4.85;;;8.70;99.90;;;;;;2079623;28;20025;-72
2021/10/25 05:47:35;;;;;;;4.47;3.90;;;8.70;99.90;;;;;;2082414;28;20472;-72
2021/10/25 05:48:39;;;;;;;4.60;3.88;;;8.70;99.90;;;;;;2083091;28;20013;-72
2021/10/25 05:49:40;;;;;;;7.38;3.95;;;8.70;99.90;;;;;;2077795;28;20041;-72
2021/10/25 05:50:42;;;;;;;5.20;4.57;;;8.70;99.90;;;;;;2081838;28;20025;-72
2021/10/25 05:51:43;;;;;;;7.07;4.80;;;8.60;99.90;;;;;;2078211;28;20080;-72
2021/10/25 05:52:44;;;;;;;6.18;4.25;;;8.70;99.90;;;;;;2080347;28;20014;-72
2021/10/25 05:53:46;;;;;;;5.10;4.43;;;8.60;99.90;;;;;;2079916;28;20100;-72
2021/10/25 05:54:46;;;;;;;6.30;4.20;;;8.60;99.90;;;;;;2082642;28;20029;-72